Time;durP1;ratioP1;P1;durP2;ratioP2;P2;SDS_P1;SDS_P2;PMS_P1;PMS_P2;Temp;Humidity;BMP_temperature;BMP_pressure;BME280_temperature;BME280_humidity;BME280_pressure;Samples;Min_cycle;Max_cycle;Signal;HPM_P1;HPM_P2
2021/08/29 00:00:12;;;;;;;15.95;5.03;;;15.90;99.90;;;;;;5022209;28;20064;-82
2021/08/29 00:02:38;;;;;;;16.30;5.32;;;16.00;99.90;;;;;;5021674;28;20049;-82
2021/08/29 00:05:06;;;;;;;14.73;5.28;;;16.10;99.90;;;;;;5025401;28;20079;-83
2021/08/29 00:07:32;;;;;;;17.95;4.57;;;16.10;99.90;;;;;;5027787;28;20045;-80
2021/08/29 00:09:57;;;;;;;20.23;4.97;;;16.10;99.90;;;;;;5018918;28;20041;-80
2021/08/29 00:12:23;;;;;;;15.43;4.78;;;16.20;99.90;;;;;;5027304;28;20140;-80
2021/08/29 00:14:49;;;;;;;18.65;5.15;;;16.10;99.90;;;;;;5016031;28;20530;-81
2021/08/29 00:17:16;;;;;;;21.65;5.45;;;16.10;99.90;;;;;;5031837;28;20056;-82
2021/08/29 00:19:42;;;;;;;12.90;4.88;;;16.10;99.90;;;;;;5029774;28;20504;-82
2021/08/29 00:22:08;;;;;;;13.82;4.70;;;16.10;99.90;;;;;;5027825;28;20091;-83
2021/08/29 00:24:34;;;;;;;14.93;4.80;;;16.10;99.90;;;;;;5018480;28;20048;-80
2021/08/29 00:27:00;;;;;;;14.63;4.75;;;16.10;99.90;;;;;;5007887;28;20029;-82
2021/08/29 00:29:25;;;;;;;16.35;5.30;;;16.10;99.90;;;;;;5027465;28;20024;-82
2021/08/29 00:31:52;;;;;;;14.55;4.95;;;16.20;99.90;;;;;;5024338;28;20520;-80
2021/08/29 00:34:17;;;;;;;11.93;4.40;;;16.20;99.90;;;;;;5006469;28;20049;-81
2021/08/29 00:36:43;;;;;;;16.60;5.18;;;16.20;99.90;;;;;;5005124;28;20106;-81
2021/08/29 00:39:09;;;;;;;19.60;5.45;;;16.20;99.90;;;;;;5028190;28;20376;-83
2021/08/29 00:41:34;;;;;;;17.02;4.63;;;16.20;99.90;;;;;;5028367;28;20469;-82
2021/08/29 00:44:02;;;;;;;14.18;5.13;;;16.30;99.90;;;;;;5027491;28;20079;-83
2021/08/29 00:46:28;;;;;;;17.05;4.65;;;16.20;99.90;;;;;;5024484;28;21152;-81
2021/08/29 00:48:54;;;;;;;16.83;5.00;;;16.20;99.90;;;;;;5026730;28;20037;-80
2021/08/29 00:51:20;;;;;;;16.38;4.90;;;16.20;99.90;;;;;;5029040;28;20071;-81
2021/08/29 00:53:50;;;;;;;17.90;4.88;;;16.20;99.90;;;;;;5024346;28;20554;-80
2021/08/29 00:56:19;;;;;;;19.02;5.30;;;16.20;99.90;;;;;;5011743;28;20435;-82
2021/08/29 00:58:46;;;;;;;15.15;5.00;;;16.20;99.90;;;;;;5025796;28;20039;-81
2021/08/29 01:01:18;;;;;;;17.42;4.90;;;16.20;99.90;;;;;;5013940;28;20051;-82
2021/08/29 01:03:46;;;;;;;13.55;4.40;;;16.20;99.90;;;;;;5027533;28;20518;-82
2021/08/29 01:06:29;;;;;;;15.50;4.45;;;16.20;99.90;;;;;;5010283;28;20049;-81
2021/08/29 01:09:03;;;;;;;14.10;4.65;;;16.10;99.90;;;;;;5028926;28;20083;-80
2021/08/29 01:11:29;;;;;;;13.68;4.30;;;16.20;99.90;;;;;;5023475;28;20045;-80
2021/08/29 01:14:00;;;;;;;15.73;4.57;;;16.20;99.90;;;;;;5023359;28;20065;-82
2021/08/29 01:16:30;;;;;;;17.13;4.45;;;16.20;99.90;;;;;;5048128;28;20577;-81
2021/08/29 01:18:58;;;;;;;15.93;4.53;;;16.20;99.90;;;;;;5011252;28;20060;-81
2021/08/29 01:21:28;;;;;;;11.02;4.13;;;16.30;99.90;;;;;;5042565;28;20120;-81
2021/08/29 01:23:58;;;;;;;15.90;4.20;;;16.30;99.90;;;;;;5027012;28;20037;-81
2021/08/29 01:26:45;;;;;;;21.25;4.75;;;16.20;99.90;;;;;;5026475;28;20045;-81
2021/08/29 01:29:15;;;;;;;16.05;4.38;;;16.30;99.90;;;;;;5020795;28;20068;-83
2021/08/29 01:31:42;;;;;;;15.52;3.95;;;16.30;99.90;;;;;;5025448;28;20044;-83
2021/08/29 01:34:11;;;;;;;13.80;4.03;;;16.30;99.90;;;;;;5028008;28;20048;-83
2021/08/29 01:36:41;;;;;;;11.35;4.28;;;16.30;99.90;;;;;;5006125;28;20052;-81
2021/08/29 01:39:08;;;;;;;12.55;3.80;;;16.40;99.90;;;;;;5027788;28;20120;-81
2021/08/29 01:41:37;;;;;;;13.32;3.90;;;16.30;99.90;;;;;;5025203;28;20128;-82
2021/08/29 01:44:04;;;;;;;10.85;3.63;;;16.30;99.90;;;;;;5027236;28;20037;-82
2021/08/29 01:46:30;;;;;;;14.93;4.45;;;16.20;99.90;;;;;;5005427;28;20126;-81
2021/08/29 01:48:56;;;;;;;11.05;3.65;;;16.20;99.90;;;;;;5026474;28;20106;-81
2021/08/29 01:51:22;;;;;;;15.32;4.00;;;16.20;99.90;;;;;;5029430;28;20036;-81
2021/08/29 01:53:48;;;;;;;12.13;3.95;;;16.20;99.90;;;;;;5030371;28;20047;-81
2021/08/29 01:56:14;;;;;;;17.67;4.22;;;16.30;99.90;;;;;;5009112;28;20128;-81
2021/08/29 01:58:40;;;;;;;17.10;4.20;;;16.20;99.90;;;;;;5028023;28;20037;-82
2021/08/29 02:01:09;;;;;;;14.60;4.30;;;16.20;99.90;;;;;;5020895;28;20053;-81
2021/08/29 02:03:36;;;;;;;16.42;4.05;;;16.20;99.90;;;;;;5042410;28;20067;-82
2021/08/29 02:06:12;;;;;;;13.15;3.55;;;16.20;99.90;;;;;;5010154;28;20052;-81
2021/08/29 02:08:51;;;;;;;13.30;4.13;;;16.20;99.90;;;;;;5024139;28;20041;-82
2021/08/29 02:11:20;;;;;;;13.50;3.60;;;16.20;99.90;;;;;;5026635;28;20110;-82
2021/08/29 02:13:47;;;;;;;9.98;3.70;;;16.20;99.90;;;;;;5008857;28;20439;-80
2021/08/29 02:16:17;;;;;;;14.00;3.83;;;16.20;99.90;;;;;;5021656;28;20397;-82
2021/08/29 02:18:46;;;;;;;13.52;4.30;;;16.20;99.90;;;;;;5021238;28;20450;-81
2021/08/29 02:21:13;;;;;;;8.40;3.35;;;16.20;99.90;;;;;;5024295;28;20053;-81
2021/08/29 02:23:40;;;;;;;14.30;3.72;;;16.20;99.90;;;;;;5009980;28;20124;-83
2021/08/29 02:26:05;;;;;;;18.20;4.20;;;16.20;99.90;;;;;;5025979;28;20060;-82
2021/08/29 02:28:33;;;;;;;17.48;4.35;;;16.20;99.90;;;;;;5025652;28;20049;-81
2021/08/29 02:30:59;;;;;;;17.63;4.68;;;16.20;99.90;;;;;;5004267;28;20137;-81
2021/08/29 02:33:24;;;;;;;15.18;4.20;;;16.20;99.90;;;;;;5019301;28;20136;-81
2021/08/29 02:35:51;;;;;;;14.30;3.85;;;16.20;99.90;;;;;;5004864;28;20136;-81
2021/08/29 02:38:18;;;;;;;14.57;4.38;;;16.20;99.90;;;;;;5018251;28;20045;-81
2021/08/29 02:40:44;;;;;;;13.82;4.68;;;16.20;99.90;;;;;;5006117;28;20472;-81
2021/08/29 02:43:12;;;;;;;16.98;4.32;;;16.30;99.90;;;;;;5019029;28;20045;-83
2021/08/29 02:45:40;;;;;;;18.25;4.40;;;16.30;99.90;;;;;;5023204;28;20119;-82
2021/08/29 02:48:06;;;;;;;14.55;4.40;;;16.30;99.90;;;;;;5035924;28;20481;-81
2021/08/29 02:50:33;;;;;;;16.73;3.97;;;16.30;99.90;;;;;;5021764;28;20033;-81
2021/08/29 02:53:00;;;;;;;14.98;4.38;;;16.40;99.90;;;;;;5020070;28;20084;-81
2021/08/29 02:55:27;;;;;;;14.30;3.95;;;16.30;99.90;;;;;;5019973;28;20054;-80
2021/08/29 02:58:05;;;;;;;22.80;5.00;;;16.30;99.90;;;;;;5006198;28;20449;-81
2021/08/29 03:00:32;;;;;;;13.18;4.07;;;16.40;99.90;;;;;;5002388;28;20049;-82
2021/08/29 03:02:58;;;;;;;18.60;4.32;;;16.40;99.90;;;;;;4988244;28;20480;-82
2021/08/29 03:05:24;;;;;;;13.55;3.88;;;16.30;99.90;;;;;;5018167;28;20115;-82
2021/08/29 03:07:50;;;;;;;17.25;4.07;;;16.30;99.90;;;;;;5014732;28;20095;-82
2021/08/29 03:10:16;;;;;;;14.95;4.03;;;16.30;99.90;;;;;;5003848;28;20049;-82
2021/08/29 03:12:43;;;;;;;11.88;3.53;;;16.30;99.90;;;;;;5018469;28;20432;-81
2021/08/29 03:15:11;;;;;;;14.25;3.78;;;16.40;99.90;;;;;;5002914;28;20084;-82
2021/08/29 03:17:37;;;;;;;16.38;3.55;;;16.40;99.90;;;;;;5022943;28;20052;-81
2021/08/29 03:20:07;;;;;;;11.07;3.20;;;16.40;99.90;;;;;;5019868;28;20037;-82
2021/08/29 03:22:37;;;;;;;10.15;3.60;;;16.40;99.90;;;;;;5018503;28;20119;-81
2021/08/29 03:25:05;;;;;;;16.80;3.38;;;16.40;99.90;;;;;;5018980;28;20041;-81
2021/08/29 03:27:31;;;;;;;11.07;3.50;;;16.40;99.90;;;;;;5032980;28;20127;-81
2021/08/29 03:29:57;;;;;;;13.68;3.42;;;16.40;99.90;;;;;;5016093;28;20037;-81
2021/08/29 03:32:24;;;;;;;15.63;3.83;;;16.40;99.90;;;;;;5023597;28;20037;-82
2021/08/29 03:34:54;;;;;;;15.55;3.55;;;16.40;99.90;;;;;;5019387;28;20095;-81
2021/08/29 03:37:21;;;;;;;11.50;3.45;;;16.40;99.90;;;;;;5022026;28;20465;-82
2021/08/29 03:39:48;;;;;;;18.13;3.97;;;16.30;99.90;;;;;;5024269;28;20052;-81
2021/08/29 03:42:15;;;;;;;13.52;3.83;;;16.40;99.90;;;;;;5007000;28;22308;-81
2021/08/29 03:44:41;;;;;;;15.77;3.75;;;16.40;99.90;;;;;;5008810;28;20441;-82
2021/08/29 03:47:09;;;;;;;12.82;3.45;;;16.40;99.90;;;;;;5024113;28;20116;-81
2021/08/29 03:49:35;;;;;;;15.98;3.72;;;16.50;99.90;;;;;;5018976;28;20049;-82
2021/08/29 03:52:00;;;;;;;14.98;3.85;;;16.40;99.90;;;;;;5019107;28;20038;-82
2021/08/29 03:54:27;;;;;;;19.08;4.25;;;16.50;99.90;;;;;;5021425;28;20056;-82
2021/08/29 03:56:52;;;;;;;15.25;3.70;;;16.50;99.90;;;;;;5012339;28;20646;-82
2021/08/29 03:59:18;;;;;;;13.05;3.70;;;16.50;99.90;;;;;;5006396;28;20058;-83
2021/08/29 04:01:44;;;;;;;18.77;4.43;;;16.40;99.90;;;;;;5006834;28;20060;-81
2021/08/29 04:04:10;;;;;;;16.58;4.00;;;16.40;99.90;;;;;;5009566;28;20573;-82
2021/08/29 04:06:37;;;;;;;24.02;4.03;;;16.50;99.90;;;;;;5006673;28;20738;-81
2021/08/29 04:09:05;;;;;;;13.93;3.63;;;16.50;99.90;;;;;;5024365;28;20037;-83
2021/08/29 04:11:32;;;;;;;19.08;4.15;;;16.50;99.90;;;;;;5007172;28;20103;-81
2021/08/29 04:13:59;;;;;;;18.60;4.05;;;16.50;99.90;;;;;;5009044;28;20141;-82
2021/08/29 04:16:25;;;;;;;14.32;3.58;;;16.50;99.90;;;;;;5009129;28;20041;-84
2021/08/29 04:18:52;;;;;;;15.05;3.90;;;16.50;99.90;;;;;;5019873;28;20094;-82
2021/08/29 04:21:21;;;;;;;13.55;3.88;;;16.40;99.90;;;;;;5019574;28;20490;-81
2021/08/29 04:23:47;;;;;;;20.02;4.05;;;16.50;99.90;;;;;;5019049;28;20666;-81
2021/08/29 04:26:13;;;;;;;13.80;4.00;;;16.40;99.90;;;;;;5022051;28;20033;-82
2021/08/29 04:28:39;;;;;;;15.98;3.95;;;16.40;99.90;;;;;;5024495;28;20030;-80
2021/08/29 04:31:15;;;;;;;13.95;3.58;;;16.40;99.90;;;;;;5005888;28;20056;-81
2021/08/29 04:33:41;;;;;;;14.73;3.65;;;16.30;99.90;;;;;;5006227;28;20388;-82
2021/08/29 04:36:08;;;;;;;12.05;3.85;;;16.30;99.90;;;;;;5024745;28;20049;-82
2021/08/29 04:38:35;;;;;;;21.80;4.38;;;16.20;99.90;;;;;;5024372;28;20518;-81
2021/08/29 04:41:01;;;;;;;15.00;3.97;;;16.20;99.90;;;;;;5006237;28;20945;-82
2021/08/29 04:43:26;;;;;;;15.18;4.03;;;16.10;99.90;;;;;;5022844;28;20033;-82
2021/08/29 04:45:52;;;;;;;16.50;4.22;;;16.10;99.90;;;;;;5009463;28;20175;-80
2021/08/29 04:48:18;;;;;;;14.02;3.03;;;16.00;99.90;;;;;;5021324;28;20117;-83
2021/08/29 04:50:44;;;;;;;13.35;3.67;;;15.90;99.90;;;;;;5003581;28;20041;-81
2021/08/29 04:53:10;;;;;;;9.75;3.67;;;15.80;99.90;;;;;;5022034;28;20025;-82
2021/08/29 04:55:36;;;;;;;14.80;3.67;;;15.70;99.90;;;;;;5007041;28;20100;-84
2021/08/29 04:58:01;;;;;;;11.88;3.42;;;15.60;99.90;;;;;;5021944;28;20068;-81
2021/08/29 05:00:27;;;;;;;10.48;2.88;;;15.50;99.90;;;;;;5008018;28;20413;-83
2021/08/29 05:02:52;;;;;;;11.60;4.00;;;15.60;99.90;;;;;;5021112;28;20121;-81
2021/08/29 05:05:18;;;;;;;15.18;3.90;;;15.60;99.90;;;;;;5021818;28;20037;-83
2021/08/29 05:07:44;;;;;;;11.55;3.35;;;15.50;99.90;;;;;;5018907;28;20488;-81
2021/08/29 05:10:10;;;;;;;14.30;3.50;;;15.50;99.90;;;;;;5021466;28;20041;-82
2021/08/29 05:12:35;;;;;;;16.90;3.80;;;15.50;99.90;;;;;;5019810;28;20195;-83
2021/08/29 05:15:01;;;;;;;14.45;3.40;;;15.50;99.90;;;;;;5022069;28;20057;-83
2021/08/29 05:17:27;;;;;;;14.20;3.83;;;15.60;99.90;;;;;;5022420;28;20053;-82
2021/08/29 05:19:52;;;;;;;14.52;3.35;;;15.60;99.90;;;;;;5020180;28;20045;-82
2021/08/29 05:22:18;;;;;;;13.20;3.75;;;15.60;99.90;;;;;;5016827;28;20045;-82
2021/08/29 05:24:44;;;;;;;13.80;3.33;;;15.60;99.90;;;;;;5021846;28;20112;-84
2021/08/29 05:27:10;;;;;;;15.85;3.35;;;15.60;99.90;;;;;;5023713;28;20029;-81
2021/08/29 05:29:35;;;;;;;15.32;3.65;;;15.60;99.90;;;;;;5023765;28;20779;-82
2021/08/29 05:32:01;;;;;;;17.98;3.33;;;15.60;99.90;;;;;;5023811;28;20045;-80
2021/08/29 05:34:26;;;;;;;16.73;3.88;;;15.60;99.90;;;;;;5019928;28;20049;-82
2021/08/29 05:36:52;;;;;;;22.20;3.80;;;15.50;99.90;;;;;;5000796;28;20537;-82
2021/08/29 05:39:18;;;;;;;24.23;4.22;;;15.50;99.90;;;;;;5021989;28;20044;-81
2021/08/29 05:41:44;;;;;;;17.70;3.40;;;15.50;99.90;;;;;;5005399;28;20086;-82
2021/08/29 05:44:10;;;;;;;22.23;3.53;;;15.50;99.90;;;;;;5016732;28;20049;-82
2021/08/29 05:46:35;;;;;;;21.55;3.83;;;15.50;99.90;;;;;;5006745;28;20045;-82
2021/08/29 05:49:01;;;;;;;16.08;3.50;;;15.50;99.90;;;;;;5020239;28;20068;-80
2021/08/29 05:51:27;;;;;;;21.75;3.72;;;15.50;99.90;;;;;;5036562;28;20048;-82
2021/08/29 05:53:53;;;;;;;24.20;3.83;;;15.50;99.90;;;;;;4999486;28;20041;-81
2021/08/29 05:56:18;;;;;;;17.30;3.42;;;15.40;99.90;;;;;;5020157;28;20045;-80
2021/08/29 05:58:45;;;;;;;14.75;3.08;;;15.40;99.90;;;;;;5018045;28;20408;-81
2021/08/29 06:01:13;;;;;;;22.80;3.00;;;15.40;99.90;;;;;;5003924;28;20730;-82
2021/08/29 06:03:38;;;;;;;26.58;4.25;;;15.40;99.90;;;;;;5003300;28;20088;-84
2021/08/29 06:06:04;;;;;;;24.08;4.05;;;15.40;99.90;;;;;;5016385;28;20093;-83
2021/08/29 06:08:30;;;;;;;24.73;4.25;;;15.40;99.90;;;;;;5006772;28;20124;-82
2021/08/29 06:10:57;;;;;;;26.38;4.00;;;15.40;99.90;;;;;;5021816;28;20045;-81
2021/08/29 06:13:22;;;;;;;29.75;4.55;;;15.50;99.90;;;;;;5021714;28;20056;-82
2021/08/29 06:15:48;;;;;;;27.40;5.28;;;15.50;99.90;;;;;;5039526;28;20111;-81
2021/08/29 06:18:14;;;;;;;32.80;5.70;;;15.50;99.90;;;;;;5041112;28;20041;-82
2021/08/29 06:20:39;;;;;;;37.00;6.00;;;15.60;99.90;;;;;;5007941;28;20047;-82
2021/08/29 06:23:05;;;;;;;30.75;5.28;;;15.50;99.90;;;;;;5002518;28;20053;-84
2021/08/29 06:25:31;;;;;;;35.20;5.38;;;15.60;99.90;;;;;;5036737;28;20053;-81
2021/08/29 06:27:56;;;;;;;23.60;4.13;;;15.60;99.90;;;;;;5025581;28;20041;-81
2021/08/29 06:30:22;;;;;;;23.45;4.30;;;15.60;99.90;;;;;;5008645;28;20124;-83
2021/08/29 06:32:47;;;;;;;21.25;4.45;;;15.60;99.90;;;;;;5023800;28;20071;-83
2021/08/29 06:35:13;;;;;;;19.80;4.45;;;15.60;99.90;;;;;;5023881;28;20402;-81
2021/08/29 06:37:39;;;;;;;34.53;5.03;;;15.60;99.90;;;;;;5008634;28;20052;-80
2021/08/29 06:40:05;;;;;;;24.83;4.95;;;15.60;99.90;;;;;;5024611;28;20083;-82
2021/08/29 06:42:31;;;;;;;26.50;5.60;;;15.60;99.90;;;;;;4998030;28;20053;-82
2021/08/29 06:44:56;;;;;;;29.05;5.28;;;15.60;99.90;;;;;;5022658;28;20043;-82
2021/08/29 06:47:22;;;;;;;23.27;4.70;;;15.70;99.90;;;;;;5027429;28;20455;-82
2021/08/29 06:49:47;;;;;;;29.92;5.45;;;15.70;99.90;;;;;;5006827;28;20041;-81
2021/08/29 06:52:13;;;;;;;24.70;5.05;;;15.70;99.90;;;;;;5006964;28;20045;-82
2021/08/29 06:54:39;;;;;;;28.10;4.82;;;15.60;99.90;;;;;;5004479;28;20041;-82
2021/08/29 06:57:05;;;;;;;23.40;4.72;;;15.60;99.90;;;;;;5022386;28;20374;-82
2021/08/29 06:59:30;;;;;;;26.45;4.68;;;15.60;99.90;;;;;;5025165;28;20134;-82
2021/08/29 07:01:56;;;;;;;23.83;4.68;;;15.60;99.90;;;;;;5026064;28;20068;-82
2021/08/29 07:04:23;;;;;;;29.75;4.95;;;15.50;99.90;;;;;;5021114;28;20045;-81
2021/08/29 07:06:49;;;;;;;17.08;5.35;;;15.60;99.90;;;;;;5023504;28;20029;-81
2021/08/29 07:09:14;;;;;;;19.88;5.85;;;15.50;99.90;;;;;;5013775;28;20094;-82
2021/08/29 07:11:40;;;;;;;28.05;6.05;;;15.50;99.90;;;;;;5005608;28;20088;-82
2021/08/29 07:14:06;;;;;;;18.27;4.90;;;15.60;99.90;;;;;;5026150;28;20060;-83
2021/08/29 07:16:31;;;;;;;15.00;5.20;;;15.60;99.90;;;;;;5008135;28;20048;-82
2021/08/29 07:18:57;;;;;;;17.85;5.53;;;15.60;99.90;;;;;;5020708;28;20045;-81
2021/08/29 07:21:23;;;;;;;18.15;6.18;;;15.60;99.90;;;;;;5008072;28;20079;-81
2021/08/29 07:23:49;;;;;;;23.15;5.18;;;15.60;99.90;;;;;;5005238;28;20358;-82
2021/08/29 07:26:15;;;;;;;18.10;4.28;;;15.70;99.90;;;;;;5007478;28;20049;-83
2021/08/29 07:28:42;;;;;;;24.15;5.22;;;15.70;99.90;;;;;;5010712;28;20438;-82
2021/08/29 07:31:10;;;;;;;19.35;4.30;;;15.60;99.90;;;;;;5024031;28;20033;-82
2021/08/29 07:33:36;;;;;;;18.80;4.57;;;15.60;99.90;;;;;;5039704;28;20037;-81
2021/08/29 07:36:02;;;;;;;17.63;4.20;;;15.60;99.90;;;;;;5022092;28;20056;-82
2021/08/29 07:38:28;;;;;;;26.48;5.47;;;15.70;99.90;;;;;;5023876;28;20083;-80
2021/08/29 07:40:54;;;;;;;22.00;5.40;;;15.70;99.90;;;;;;5022581;28;20457;-81
2021/08/29 07:43:19;;;;;;;27.17;5.70;;;15.70;99.90;;;;;;5042843;28;20086;-82
2021/08/29 07:45:45;;;;;;;30.00;6.22;;;15.80;99.90;;;;;;5047395;28;20071;-78
2021/08/29 07:48:11;;;;;;;26.70;5.60;;;15.80;99.90;;;;;;5026415;28;20041;-82
2021/08/29 07:50:37;;;;;;;26.38;5.97;;;15.80;99.90;;;;;;5025547;28;20066;-80
2021/08/29 07:53:03;;;;;;;36.15;6.53;;;16.00;99.90;;;;;;5021893;28;20053;-83
2021/08/29 07:55:29;;;;;;;24.55;6.05;;;16.00;99.90;;;;;;5007074;28;20037;-85
2021/08/29 07:57:55;;;;;;;19.80;5.53;;;16.00;99.90;;;;;;5006633;28;20048;-81
2021/08/29 08:00:21;;;;;;;21.30;6.13;;;16.00;99.90;;;;;;5041981;28;20320;-80
2021/08/29 08:02:47;;;;;;;22.27;6.43;;;16.10;99.90;;;;;;5010054;28;20037;-83
2021/08/29 08:05:12;;;;;;;21.23;6.15;;;16.20;99.90;;;;;;5022139;28;21070;-80
2021/08/29 08:07:41;;;;;;;18.08;6.05;;;16.20;99.90;;;;;;5025215;28;20033;-81
2021/08/29 08:10:07;;;;;;;25.13;6.65;;;16.20;99.90;;;;;;5002451;28;20107;-82
2021/08/29 08:12:33;;;;;;;23.77;5.53;;;16.20;99.90;;;;;;5024970;28;20049;-84
2021/08/29 08:15:01;;;;;;;24.70;6.07;;;16.30;99.90;;;;;;5021607;28;20057;-81
2021/08/29 08:17:27;;;;;;;22.13;5.53;;;16.30;99.90;;;;;;5006886;28;20156;-80
2021/08/29 08:19:53;;;;;;;20.77;5.75;;;16.40;99.90;;;;;;5021541;28;20167;-82
2021/08/29 08:22:19;;;;;;;16.90;4.97;;;16.40;99.90;;;;;;5020014;28;20086;-84
2021/08/29 08:24:44;;;;;;;20.70;5.80;;;16.50;99.90;;;;;;5039495;28;20169;-84
2021/08/29 08:27:10;;;;;;;20.20;5.32;;;16.50;99.90;;;;;;5024478;28;20346;-80
2021/08/29 08:29:36;;;;;;;11.60;4.43;;;16.60;99.90;;;;;;5009982;28;20124;-83
2021/08/29 08:32:01;;;;;;;12.55;4.90;;;16.60;99.90;;;;;;5006375;28;20064;-82
2021/08/29 08:34:27;;;;;;;14.50;4.28;;;16.70;99.90;;;;;;5007503;28;20087;-85
2021/08/29 08:36:53;;;;;;;14.80;4.50;;;16.80;99.90;;;;;;5025896;28;20049;-87
2021/08/29 08:39:18;;;;;;;12.57;3.60;;;16.90;99.90;;;;;;5026458;28;20041;-86
2021/08/29 08:41:44;;;;;;;10.75;3.80;;;16.90;99.90;;;;;;5024311;28;20045;-85
2021/08/29 08:44:11;;;;;;;13.57;4.40;;;16.90;99.90;;;;;;5026964;28;20053;-80
2021/08/29 08:46:37;;;;;;;9.15;3.17;;;16.90;99.90;;;;;;5025851;28;20130;-78
2021/08/29 08:49:03;;;;;;;10.77;3.15;;;17.00;99.90;;;;;;5017773;28;20084;-77
2021/08/29 08:51:31;;;;;;;10.75;3.50;;;16.90;99.90;;;;;;5019111;28;20172;-77
2021/08/29 08:53:59;;;;;;;5.68;2.60;;;16.90;99.90;;;;;;5025245;28;20419;-80
2021/08/29 08:56:26;;;;;;;8.73;2.55;;;16.90;99.90;;;;;;5005920;28;20060;-79
2021/08/29 08:59:01;;;;;;;11.25;2.95;;;16.80;99.90;;;;;;5009729;28;20175;-78
2021/08/29 09:01:27;;;;;;;8.93;3.05;;;16.80;99.90;;;;;;5024923;28;20546;-80
2021/08/29 09:03:52;;;;;;;12.00;3.03;;;16.80;99.90;;;;;;5016890;28;20497;-79
2021/08/29 09:06:19;;;;;;;12.02;3.42;;;16.80;99.90;;;;;;5017385;28;20080;-79
2021/08/29 09:08:44;;;;;;;13.63;3.22;;;16.70;99.90;;;;;;5019220;28;20128;-79
2021/08/29 09:11:10;;;;;;;6.53;2.80;;;16.60;99.90;;;;;;5017978;28;20132;-79
2021/08/29 09:13:53;;;;;;;13.20;3.17;;;16.60;99.90;;;;;;5012029;28;20048;-80
2021/08/29 09:16:21;;;;;;;7.43;2.85;;;16.50;99.90;;;;;;5021111;28;20046;-79
2021/08/29 09:18:49;;;;;;;10.77;2.95;;;16.50;99.90;;;;;;5017434;28;20106;-79
2021/08/29 09:21:30;;;;;;;12.05;3.28;;;16.50;99.90;;;;;;5017020;28;20492;-79
2021/08/29 09:23:58;;;;;;;10.07;3.17;;;16.40;99.90;;;;;;5027229;28;20104;-81
2021/08/29 09:26:26;;;;;;;7.82;3.22;;;16.60;99.90;;;;;;5024238;28;20160;-81
2021/08/29 09:28:58;;;;;;;12.23;3.20;;;16.60;99.90;;;;;;5019261;28;20064;-81
2021/08/29 09:31:40;;;;;;;8.25;2.95;;;16.70;99.90;;;;;;5025816;28;20132;-79
2021/08/29 09:34:05;;;;;;;8.77;2.90;;;16.70;99.90;;;;;;5023970;28;20099;-78
2021/08/29 09:36:33;;;;;;;16.58;3.38;;;16.90;99.90;;;;;;5008744;28;20046;-78
2021/08/29 09:39:17;;;;;;;8.73;3.03;;;16.90;99.90;;;;;;5018820;28;20046;-78
2021/08/29 09:41:44;;;;;;;7.18;2.38;;;17.00;99.90;;;;;;4991427;28;20178;-80
2021/08/29 09:44:18;;;;;;;4.70;2.33;;;17.00;99.90;;;;;;5004273;28;20111;-81
2021/08/29 09:46:53;;;;;;;7.13;2.47;;;17.00;99.90;;;;;;5004672;28;20120;-79
2021/08/29 09:49:27;;;;;;;10.63;2.10;;;17.10;99.90;;;;;;5021802;28;20120;-79
2021/08/29 09:51:55;;;;;;;8.65;2.05;;;17.10;99.90;;;;;;5019566;28;20118;-79
2021/08/29 09:54:33;;;;;;;9.70;2.58;;;17.10;99.90;;;;;;5017801;28;20057;-78
2021/08/29 09:57:00;;;;;;;6.75;2.10;;;17.20;99.90;;;;;;5022723;28;20049;-78
2021/08/29 09:59:49;;;;;;;10.02;1.90;;;17.20;99.90;;;;;;5004955;28;20488;-77
2021/08/29 10:02:24;;;;;;;13.95;2.13;;;17.10;99.90;;;;;;5021518;28;20041;-77
2021/08/29 10:05:10;;;;;;;5.80;2.10;;;17.00;99.90;;;;;;5020826;28;20042;-78
2021/08/29 10:07:35;;;;;;;9.20;2.25;;;17.00;99.90;;;;;;5020161;28;20041;-79
2021/08/29 10:10:21;;;;;;;10.10;2.25;;;17.10;99.90;;;;;;5020887;28;20092;-80
2021/08/29 10:12:49;;;;;;;7.05;2.50;;;17.10;99.90;;;;;;5020417;28;20045;-80
2021/08/29 10:15:17;;;;;;;10.07;2.83;;;17.00;99.90;;;;;;5020001;28;20095;-81
2021/08/29 10:17:45;;;;;;;10.75;2.47;;;17.00;99.90;;;;;;5020047;28;20069;-79
2021/08/29 10:20:15;;;;;;;9.07;2.95;;;17.10;99.90;;;;;;5005519;28;20038;-80
2021/08/29 10:22:41;;;;;;;8.43;2.92;;;17.00;99.90;;;;;;5014603;28;20061;-81
2021/08/29 10:25:09;;;;;;;5.78;2.60;;;17.00;99.90;;;;;;5020197;28;20212;-81
2021/08/29 10:27:39;;;;;;;8.48;2.40;;;17.10;99.90;;;;;;5020672;28;20531;-80
2021/08/29 10:30:09;;;;;;;9.65;2.78;;;17.10;99.90;;;;;;5015156;28;20053;-81
2021/08/29 10:32:44;;;;;;;10.15;2.67;;;17.10;99.90;;;;;;5021190;28;20373;-81
2021/08/29 10:35:10;;;;;;;;;;;17.00;99.90;;;;;;5024093;28;21053;-81
2021/08/29 10:37:41;;;;;;;10.55;2.55;;;17.10;99.90;;;;;;5022878;28;19921;-81
2021/08/29 10:40:08;;;;;;;9.38;3.10;;;17.00;99.90;;;;;;5024068;28;20042;-82
2021/08/29 10:42:39;;;;;;;7.30;2.85;;;17.00;99.90;;;;;;5006463;28;20104;-81
2021/08/29 10:45:06;;;;;;;8.70;2.60;;;17.00;99.90;;;;;;5017152;28;20038;-79
2021/08/29 10:47:33;;;;;;;10.60;2.80;;;17.00;99.90;;;;;;5022458;28;20225;-79
2021/08/29 10:50:01;;;;;;;10.98;3.10;;;17.00;99.90;;;;;;5014827;28;20090;-79
2021/08/29 10:52:31;;;;;;;9.73;3.08;;;17.00;99.90;;;;;;5018497;28;20370;-79
2021/08/29 10:55:08;;;;;;;11.18;3.20;;;17.00;99.90;;;;;;5025844;28;20049;-82
2021/08/29 10:57:42;;;;;;;9.00;3.35;;;17.00;99.90;;;;;;4998695;28;20050;-81
2021/08/29 11:00:25;;;;;;;6.00;2.88;;;17.00;99.90;;;;;;5007237;28;20121;-81
2021/08/29 11:02:52;;;;;;;8.32;3.13;;;16.90;99.90;;;;;;5020617;28;20046;-81
2021/08/29 11:05:40;;;;;;;8.38;3.20;;;16.90;99.90;;;;;;5019625;28;20623;-81
2021/08/29 11:08:24;;;;;;;6.18;3.00;;;16.80;99.90;;;;;;4993462;28;20073;-81
2021/08/29 11:10:50;;;;;;;7.15;3.55;;;16.70;99.90;;;;;;5021948;28;20034;-82
2021/08/29 11:13:29;;;;;;;9.35;3.30;;;16.70;99.90;;;;;;5017212;28;20382;-82
2021/08/29 11:16:25;;;;;;;9.57;3.22;;;16.80;99.90;;;;;;5022499;28;20053;-80
2021/08/29 11:19:00;;;;;;;7.40;3.30;;;16.80;99.90;;;;;;4930028;29;20146;-81
2021/08/29 11:21:46;;;;;;;;;;;16.90;99.90;;;;;;4916927;29;20040;-81
2021/08/29 11:24:11;;;;;;;9.70;3.50;;;16.90;99.90;;;;;;4918884;29;20045;-81
2021/08/29 11:26:43;;;;;;;7.18;3.42;;;17.00;99.90;;;;;;4909984;29;20486;-82
2021/08/29 11:29:41;;;;;;;11.20;4.10;;;17.10;99.90;;;;;;4928565;29;20452;-81
2021/08/29 11:32:11;;;;;;;7.72;3.63;;;17.10;99.90;;;;;;4930373;29;20078;-82
2021/08/29 11:34:37;;;;;;;9.55;4.22;;;17.10;99.90;;;;;;4927679;29;20047;-81
2021/08/29 11:37:22;;;;;;;8.93;3.97;;;17.10;99.90;;;;;;4932798;29;20117;-81
2021/08/29 11:40:02;;;;;;;9.63;3.75;;;17.10;99.90;;;;;;4945272;29;20254;-80
2021/08/29 11:42:29;;;;;;;8.98;3.60;;;17.00;99.90;;;;;;4928970;29;20051;-81
2021/08/29 11:44:56;;;;;;;7.68;3.45;;;17.00;99.90;;;;;;4913763;29;20063;-81
2021/08/29 11:47:23;;;;;;;7.13;3.72;;;17.00;99.90;;;;;;4914231;29;20347;-80
2021/08/29 11:49:56;;;;;;;9.90;4.05;;;16.90;99.90;;;;;;4926623;29;20056;-79
2021/08/29 11:52:31;;;;;;;11.68;4.07;;;17.00;99.90;;;;;;4927113;29;20099;-79
2021/08/29 11:55:07;;;;;;;13.98;3.92;;;17.00;99.90;;;;;;4958049;28;20578;-79
2021/08/29 11:57:55;;;;;;;8.82;3.63;;;17.00;99.90;;;;;;5010648;28;20533;-80
2021/08/29 12:00:25;;;;;;;9.15;4.40;;;17.00;99.90;;;;;;5011142;28;20053;-79
2021/08/29 12:02:53;;;;;;;9.48;4.03;;;17.00;99.90;;;;;;5011595;28;20495;-79
2021/08/29 12:05:19;;;;;;;8.77;4.25;;;17.00;99.90;;;;;;5027759;28;20053;-80
2021/08/29 12:07:47;;;;;;;12.55;4.25;;;17.00;99.90;;;;;;5009921;28;20053;-81
2021/08/29 12:10:17;;;;;;;11.40;4.57;;;17.00;99.90;;;;;;5006012;28;20503;-79
2021/08/29 12:12:46;;;;;;;14.20;4.40;;;17.10;99.90;;;;;;5027463;28;20147;-78
2021/08/29 12:15:13;;;;;;;9.30;4.35;;;17.30;99.90;;;;;;5029054;28;20139;-78
2021/08/29 12:17:40;;;;;;;9.85;4.05;;;17.30;99.90;;;;;;5009351;28;20044;-79
2021/08/29 12:20:08;;;;;;;10.65;4.38;;;17.40;99.90;;;;;;5045635;28;20037;-80
2021/08/29 12:22:37;;;;;;;9.77;4.43;;;17.40;99.90;;;;;;5029076;28;20071;-79
2021/08/29 12:25:04;;;;;;;11.45;4.68;;;17.50;99.90;;;;;;5031816;28;20060;-77
2021/08/29 12:27:32;;;;;;;8.35;4.25;;;17.50;99.90;;;;;;5042246;28;20045;-80
2021/08/29 12:30:00;;;;;;;20.20;4.50;;;17.50;99.90;;;;;;5024101;28;20098;-79
2021/08/29 12:32:28;;;;;;;11.30;5.03;;;17.40;99.90;;;;;;5026273;28;20407;-80
2021/08/29 12:34:55;;;;;;;9.77;4.90;;;17.40;99.90;;;;;;5025264;28;20195;-79
2021/08/29 12:37:23;;;;;;;9.27;4.65;;;17.50;99.90;;;;;;5027476;28;20124;-79
2021/08/29 12:39:59;;;;;;;10.68;4.32;;;17.50;99.90;;;;;;5028644;28;20512;-80
2021/08/29 12:42:27;;;;;;;7.70;4.13;;;17.60;99.90;;;;;;5009644;28;20056;-80